Time;durP1;ratioP1;P1;durP2;ratioP2;P2;SDS_P1;SDS_P2;PMS_P1;PMS_P2;Temp;Humidity;BMP_temperature;BMP_pressure;BME280_temperature;BME280_humidity;BME280_pressure;Samples;Min_cycle;Max_cycle;Signal;HPM_P1;HPM_P2
2023/07/09 00:00:51;;;;;;;0.17;0.17;;;;;;;25.50;53.06;101755.06;5074851;28;20143;-79
2023/07/09 00:03:19;;;;;;;0.05;0.05;;;;;;;25.46;53.15;101754.41;5078035;28;20090;-78
2023/07/09 00:05:48;;;;;;;0.10;0.10;;;;;;;25.45;53.34;101758.06;5076067;28;20049;-78
2023/07/09 00:08:28;;;;;;;0.20;0.20;;;;;;;25.44;54.08;101761.75;5077023;28;20107;-79
2023/07/09 00:10:56;;;;;;;0.10;0.10;;;;;;;25.37;53.72;101760.44;5072880;28;20025;-79
2023/07/09 00:13:24;;;;;;;0.10;0.10;;;;;;;25.34;54.58;101766.91;5063035;28;20024;-79
2023/07/09 00:15:51;;;;;;;0.13;0.13;;;;;;;25.31;54.20;101768.97;5064196;28;20044;-80
2023/07/09 00:18:21;;;;;;;0.00;0.00;;;;;;;25.31;54.19;101768.97;5056719;28;20098;-77
2023/07/09 00:20:47;;;;;;;0.10;0.10;;;;;;;25.29;54.13;101779.91;5056476;28;20124;-77
2023/07/09 00:23:16;;;;;;;0.10;0.10;;;;;;;25.29;54.13;101779.06;5057682;28;20037;-77
2023/07/09 00:25:43;;;;;;;0.10;0.08;;;;;;;25.29;54.17;101789.91;5056896;28;20021;-78
2023/07/09 00:28:21;;;;;;;0.10;0.10;;;;;;;25.33;53.80;101780.59;5054225;28;20099;-77
2023/07/09 00:30:48;;;;;;;0.05;0.05;;;;;;;25.30;54.29;101783.53;5055272;28;20017;-77
2023/07/09 00:33:18;;;;;;;0.10;0.10;;;;;;;25.30;53.78;101780.81;5055945;28;20353;-77
2023/07/09 00:35:48;;;;;;;0.20;0.20;;;;;;;25.29;53.88;101793.47;5051675;28;20027;-78
2023/07/09 00:38:21;;;;;;;0.00;0.00;;;;;;;25.28;54.03;101790.88;5045400;28;20025;-77
2023/07/09 00:41:20;;;;;;;0.75;0.75;;;;;;;25.31;53.84;101787.94;5053234;28;20061;-75
2023/07/09 00:43:52;;;;;;;0.00;0.00;;;;;;;25.22;54.34;101778.59;5050290;28;20394;-77
2023/07/09 00:49:00;;;;;;;0.00;0.00;;;;;;;25.14;54.41;101787.25;5074330;27;2053353;-78
2023/07/09 00:51:27;;;;;;;;;;;;;;;25.20;54.89;101786.84;5101787;28;20031;-79
2023/07/09 00:53:59;;;;;;;0.00;0.00;;;;;;;25.07;54.60;101780.47;5105691;28;19912;-78
2023/07/09 00:56:33;;;;;;;0.57;0.57;;;;;;;25.05;54.88;101785.16;5109996;28;20020;-77
2023/07/09 00:59:04;;;;;;;0.10;0.10;;;;;;;25.01;55.20;101786.31;5106407;28;20027;-78
2023/07/09 01:01:40;;;;;;;0.03;0.03;;;;;;;24.97;55.07;101795.63;5110784;28;20027;-78
2023/07/09 01:04:10;;;;;;;0.00;0.00;;;;;;;24.92;55.92;101797.78;5110208;28;20039;-80
2023/07/09 01:06:42;;;;;;;0.25;0.25;;;;;;;24.79;56.38;101793.16;5112621;28;20500;-78
2023/07/09 01:09:12;;;;;;;0.57;0.57;;;;;;;24.73;56.36;101787.28;5106807;28;20062;-79
2023/07/09 01:11:39;;;;;;;0.40;0.40;;;;;;;24.76;56.34;101787.97;5087311;28;20032;-81
2023/07/09 01:14:09;;;;;;;0.20;0.20;;;;;;;24.76;56.43;101784.34;5106447;28;20111;-82
2023/07/09 01:16:40;;;;;;;0.00;0.00;;;;;;;24.75;56.18;101790.75;5106611;28;20028;-82
2023/07/09 01:19:16;;;;;;;0.10;0.10;;;;;;;24.75;56.10;101783.50;5113100;28;20123;-84
2023/07/09 01:21:43;;;;;;;0.00;0.00;;;;;;;24.69;57.50;101784.75;5124520;28;20079;-82
2023/07/09 01:24:37;;;;;;;0.03;0.03;;;;;;;24.71;56.81;101790.06;5117592;28;20089;-81
2023/07/09 01:27:05;;;;;;;0.00;0.00;;;;;;;24.65;57.04;101791.34;5096393;28;20063;-82
2023/07/09 01:29:35;;;;;;;0.20;0.20;;;;;;;24.64;56.89;101792.28;5106971;28;20067;-83
2023/07/09 01:32:03;;;;;;;0.15;0.15;;;;;;;24.62;57.21;101793.34;5091117;28;20020;-81
2023/07/09 01:34:30;;;;;;;0.10;0.10;;;;;;;24.59;57.04;101797.13;5107847;28;20024;-81
2023/07/09 01:36:56;;;;;;;0.00;0.00;;;;;;;24.58;56.96;101806.22;5105168;28;20069;-81
2023/07/09 01:39:23;;;;;;;4.85;0.45;;;;;;;24.59;56.54;101802.56;5106104;28;20520;-82
2023/07/09 01:41:50;;;;;;;0.00;0.00;;;;;;;24.61;56.93;101802.44;5103387;28;20052;-79
2023/07/09 01:44:19;;;;;;;0.00;0.00;;;;;;;24.60;56.96;101798.00;5105261;28;20125;-81
2023/07/09 01:46:50;;;;;;;0.00;0.00;;;;;;;24.59;56.81;101801.69;5103523;28;20525;-82
2023/07/09 01:49:17;;;;;;;0.00;0.00;;;;;;;24.57;56.85;101798.22;5108076;28;20059;-82
2023/07/09 01:51:47;;;;;;;0.00;0.00;;;;;;;24.54;56.72;101797.44;5114290;28;20157;-80
2023/07/09 01:54:16;;;;;;;0.00;0.00;;;;;;;24.53;56.73;101797.53;5105497;28;20034;-82
2023/07/09 01:56:46;;;;;;;0.10;0.10;;;;;;;24.51;56.79;101794.94;5107227;28;20084;-81
2023/07/09 01:59:12;;;;;;;0.00;0.00;;;;;;;24.49;57.08;101802.28;5099202;28;20060;-81
2023/07/09 02:01:39;;;;;;;0.00;0.00;;;;;;;24.48;57.34;101800.53;5098886;28;20470;-82
2023/07/09 02:04:05;;;;;;;0.00;0.00;;;;;;;24.45;56.80;101799.84;5097851;28;20030;-80
2023/07/09 02:06:32;;;;;;;0.20;0.20;;;;;;;24.43;56.76;101807.22;5102514;28;20181;-81
2023/07/09 02:08:58;;;;;;;0.13;0.13;;;;;;;24.41;56.71;101799.16;5099055;28;20030;-80
2023/07/09 02:11:25;;;;;;;0.00;0.00;;;;;;;24.41;56.90;101799.16;5094982;28;20028;-81
2023/07/09 02:13:51;;;;;;;0.15;0.15;;;;;;;24.39;57.33;101801.13;5095778;28;20036;-81
2023/07/09 02:16:17;;;;;;;0.00;0.00;;;;;;;24.37;57.71;101805.75;5100226;28;20059;-81
2023/07/09 02:18:43;;;;;;;0.00;0.00;;;;;;;24.34;57.50;101801.41;5106344;28;20045;-79
2023/07/09 02:21:09;;;;;;;0.43;0.43;;;;;;;24.33;58.03;101798.81;5102695;28;20020;-80
2023/07/09 02:23:35;;;;;;;0.22;0.22;;;;;;;24.30;57.96;101807.09;5098882;28;20039;-81
2023/07/09 02:26:01;;;;;;;0.10;0.10;;;;;;;24.27;58.83;101796.50;5096821;28;20059;-80
2023/07/09 02:28:28;;;;;;;0.22;0.22;;;;;;;24.26;58.51;101800.16;5095556;28;20052;-81
2023/07/09 02:30:54;;;;;;;0.10;0.10;;;;;;;24.23;57.68;101793.97;5097232;28;20051;-80
2023/07/09 02:33:20;;;;;;;0.00;0.00;;;;;;;24.23;58.48;101798.50;5097228;28;20470;-80
2023/07/09 02:35:48;;;;;;;0.40;0.40;;;;;;;24.21;58.66;101798.63;5097857;28;20058;-80
2023/07/09 02:38:14;;;;;;;0.10;0.10;;;;;;;24.20;58.42;101801.41;5098914;28;20024;-80
2023/07/09 02:40:40;;;;;;;0.05;0.05;;;;;;;24.18;58.15;101792.53;5097275;28;20028;-79
2023/07/09 02:43:06;;;;;;;0.00;0.00;;;;;;;24.17;58.82;101799.75;5099906;28;20039;-80
2023/07/09 02:45:32;;;;;;;0.00;0.00;;;;;;;24.16;58.92;101799.84;5098574;28;20024;-79
2023/07/09 02:47:58;;;;;;;0.10;0.10;;;;;;;24.12;58.56;101791.06;5095632;28;20097;-79
2023/07/09 02:50:24;;;;;;;0.03;0.03;;;;;;;24.05;58.90;101797.81;5097100;28;20059;-79
2023/07/09 02:52:50;;;;;;;0.52;0.52;;;;;;;23.99;59.27;101796.38;5104322;28;20097;-80
2023/07/09 02:55:16;;;;;;;0.30;0.30;;;;;;;23.98;59.06;101791.06;5100359;28;20058;-80
2023/07/09 02:57:42;;;;;;;0.10;0.10;;;;;;;23.95;59.40;101799.34;5100682;28;20078;-81
2023/07/09 03:00:09;;;;;;;0.50;0.15;;;;;;;23.93;58.69;101798.59;5096005;28;20036;-80
2023/07/09 03:02:35;;;;;;;0.17;0.17;;;;;;;23.92;59.20;101796.84;5104561;28;20039;-80
2023/07/09 03:05:01;;;;;;;0.00;0.00;;;;;;;23.89;59.54;101796.03;5108302;28;20035;-81
2023/07/09 03:07:27;;;;;;;0.00;0.00;;;;;;;23.88;59.51;101797.00;5108469;28;20059;-81
2023/07/09 03:09:54;;;;;;;0.35;0.35;;;;;;;23.86;59.80;101785.41;5107522;28;20128;-81
2023/07/09 03:12:20;;;;;;;0.20;0.20;;;;;;;23.84;59.91;101787.31;5106436;28;20036;-80
2023/07/09 03:14:49;;;;;;;0.00;0.00;;;;;;;23.86;60.15;101793.53;5106151;28;20040;-80
2023/07/09 03:17:15;;;;;;;0.00;0.00;;;;;;;23.82;60.01;101797.38;5100259;28;20051;-81
2023/07/09 03:19:41;;;;;;;0.10;0.10;;;;;;;23.81;60.49;101798.31;5097771;28;20040;-80
2023/07/09 03:22:07;;;;;;;0.38;0.38;;;;;;;23.81;60.30;101800.16;5097471;28;20076;-81
2023/07/09 03:24:33;;;;;;;0.10;0.10;;;;;;;23.78;60.16;101806.63;5094563;28;20021;-81
2023/07/09 03:26:59;;;;;;;0.00;0.00;;;;;;;23.77;60.73;101810.31;5097126;28;20036;-82
2023/07/09 03:29:25;;;;;;;0.75;0.75;;;;;;;23.75;60.58;101810.41;5096924;28;20031;-82
2023/07/09 03:31:51;;;;;;;0.10;0.10;;;;;;;23.80;59.85;101811.97;5096808;28;20043;-81
2023/07/09 03:34:17;;;;;;;0.00;0.00;;;;;;;23.74;60.30;101808.66;5096451;28;20060;-81
2023/07/09 03:36:45;;;;;;;0.10;0.10;;;;;;;23.74;60.50;101813.22;5095254;28;20131;-82
2023/07/09 03:39:11;;;;;;;0.00;0.00;;;;;;;23.73;60.78;101819.59;5095079;28;20790;-82
2023/07/09 03:41:37;;;;;;;0.00;0.00;;;;;;;23.71;60.81;101818.78;5092137;28;20047;-82
2023/07/09 03:44:03;;;;;;;0.98;0.93;;;;;;;23.70;60.73;101819.75;5095645;28;20428;-83
2023/07/09 03:46:29;;;;;;;1.20;0.57;;;;;;;23.69;60.51;101824.31;5096662;28;20477;-81
2023/07/09 03:48:58;;;;;;;0.47;0.47;;;;;;;23.70;60.72;101825.16;5096991;28;20027;-82
2023/07/09 03:51:24;;;;;;;0.10;0.10;;;;;;;23.69;60.77;101829.72;5094758;28;20400;-82
2023/07/09 03:53:53;;;;;;;0.00;0.00;;;;;;;23.69;61.15;101820.72;5097823;28;20032;-81
2023/07/09 03:56:19;;;;;;;0.10;0.10;;;;;;;23.70;61.14;101830.56;5093145;28;20043;-80
2023/07/09 03:58:46;;;;;;;0.10;0.10;;;;;;;23.72;60.63;101839.47;5097009;28;20024;-82
2023/07/09 04:01:12;;;;;;;0.10;0.10;;;;;;;23.73;60.63;101835.81;5095767;28;20024;-80
2023/07/09 04:03:38;;;;;;;0.08;0.08;;;;;;;23.75;60.63;101832.06;5094677;28;20020;-80
2023/07/09 04:06:04;;;;;;;0.10;0.10;;;;;;;23.78;60.37;101830.13;5092741;28;20438;-80
2023/07/09 04:08:30;;;;;;;0.22;0.22;;;;;;;23.81;60.27;101827.22;5091906;28;20444;-81
2023/07/09 04:11:01;;;;;;;0.00;0.00;;;;;;;23.85;60.14;101826.06;5093837;28;20080;-81
2023/07/09 04:13:28;;;;;;;0.30;0.30;;;;;;;23.85;60.31;101809.84;5091189;28;20031;-80
2023/07/09 04:15:54;;;;;;;0.00;0.00;;;;;;;23.87;60.32;101821.44;5091233;28;20063;-78
2023/07/09 04:18:20;;;;;;;0.00;0.00;;;;;;;23.88;60.16;101812.38;5101797;28;20024;-80
2023/07/09 04:20:50;;;;;;;0.35;0.35;;;;;;;23.94;60.06;101808.44;5102128;28;20063;-81
2023/07/09 04:23:18;;;;;;;0.10;0.10;;;;;;;23.92;60.58;101807.69;5093445;28;21428;-81
2023/07/09 04:25:44;;;;;;;0.00;0.00;;;;;;;23.89;60.26;101809.56;5089478;28;20091;-80
2023/07/09 04:28:10;;;;;;;0.30;0.30;;;;;;;23.88;60.75;101813.22;5092448;28;20485;-80
2023/07/09 04:30:36;;;;;;;0.40;0.40;;;;;;;23.93;60.39;101815.69;5095925;28;20073;-80
2023/07/09 04:33:03;;;;;;;0.10;0.10;;;;;;;23.96;60.50;101815.50;5094678;28;20032;-79
2023/07/09 04:35:29;;;;;;;0.00;0.00;;;;;;;23.97;60.33;101821.78;5092624;28;20020;-79
2023/07/09 04:37:55;;;;;;;0.05;0.05;;;;;;;23.94;60.40;101811.13;5092149;28;20034;-81
2023/07/09 04:40:24;;;;;;;0.10;0.10;;;;;;;23.94;60.99;101811.13;5096520;28;20104;-80
2023/07/09 04:42:50;;;;;;;0.00;0.00;;;;;;;23.92;61.48;101813.09;5092125;28;20073;-80
2023/07/09 04:45:17;;;;;;;0.00;0.00;;;;;;;23.91;61.68;101817.56;5097021;28;20020;-79
2023/07/09 04:47:43;;;;;;;0.00;0.00;;;;;;;23.90;61.34;101815.84;5092814;28;20035;-79
2023/07/09 04:50:11;;;;;;;0.00;0.00;;;;;;;23.90;61.81;101816.72;5093298;28;20043;-80
2023/07/09 04:52:37;;;;;;;0.08;0.08;;;;;;;23.93;61.03;101820.25;5096870;28;20024;-80
2023/07/09 04:55:04;;;;;;;0.20;0.20;;;;;;;23.95;61.19;101812.88;5092814;28;20028;-80
2023/07/09 04:57:30;;;;;;;0.30;0.30;;;;;;;23.97;61.94;101838.03;5091120;28;20028;-80
2023/07/09 04:59:56;;;;;;;0.10;0.10;;;;;;;23.99;61.23;101830.66;5091473;28;20432;-79
2023/07/09 05:02:23;;;;;;;0.00;0.00;;;;;;;24.03;61.06;101832.25;5089703;28;20070;-80
2023/07/09 05:04:49;;;;;;;0.22;0.22;;;;;;;24.08;60.91;101831.97;5093326;28;20095;-80
2023/07/09 05:07:15;;;;;;;0.08;0.08;;;;;;;24.13;60.81;101827.13;5089650;28;20050;-79
2023/07/09 05:09:41;;;;;;;0.10;0.10;;;;;;;24.18;60.71;101820.44;5087944;28;20107;-80
2023/07/09 05:12:08;;;;;;;0.10;0.10;;;;;;;24.25;60.56;101825.50;5092052;28;20427;-78
2023/07/09 05:14:35;;;;;;;0.00;0.00;;;;;;;24.30;60.36;101826.06;5090801;28;20028;-80
2023/07/09 05:17:01;;;;;;;0.05;0.05;;;;;;;24.36;59.99;101817.56;5091836;28;20071;-78
2023/07/09 05:19:27;;;;;;;0.10;0.10;;;;;;;24.43;60.54;101818.91;5092117;28;20031;-78
2023/07/09 05:21:53;;;;;;;0.50;0.50;;;;;;;24.49;60.13;101823.94;5092812;28;20471;-80
2023/07/09 05:24:19;;;;;;;0.10;0.10;;;;;;;24.56;59.93;101819.00;5095110;28;20048;-80
2023/07/09 05:26:45;;;;;;;0.10;0.10;;;;;;;24.66;59.90;101817.50;5095077;28;20036;-79
2023/07/09 05:29:11;;;;;;;0.00;0.00;;;;;;;24.74;59.81;101822.41;5091899;28;20119;-80
2023/07/09 05:31:37;;;;;;;0.00;0.00;;;;;;;24.89;59.22;101825.09;5093743;28;20090;-79
2023/07/09 05:34:03;;;;;;;0.10;0.10;;;;;;;25.00;59.18;101830.69;5092813;28;20093;-81
2023/07/09 05:36:30;;;;;;;0.30;0.30;;;;;;;25.10;58.87;101830.97;5100494;28;20039;-82
2023/07/09 05:38:56;;;;;;;0.00;0.00;;;;;;;25.19;59.09;101833.91;5096200;28;20024;-82
2023/07/09 05:41:23;;;;;;;0.03;0.03;;;;;;;25.28;59.02;101842.41;5106787;28;20028;-82
2023/07/09 05:43:51;;;;;;;1.85;0.73;;;;;;;25.34;58.71;101842.00;5106320;28;20024;-82
2023/07/09 05:46:18;;;;;;;0.20;0.20;;;;;;;25.43;58.20;101819.69;5104900;28;20029;-81
2023/07/09 05:48:44;;;;;;;0.20;0.20;;;;;;;25.51;57.65;101817.34;5099793;28;20035;-82
2023/07/09 05:51:10;;;;;;;0.10;0.10;;;;;;;25.64;57.77;101819.22;5102828;28;20032;-81
2023/07/09 05:53:37;;;;;;;0.13;0.13;;;;;;;25.74;57.93;101823.03;5103304;28;20028;-81
2023/07/09 05:56:12;;;;;;;0.08;0.08;;;;;;;25.88;57.57;101823.94;5102639;28;20020;-83
2023/07/09 05:58:38;;;;;;;0.00;0.00;;;;;;;25.89;58.28;101837.38;5110402;28;20038;-82
2023/07/09 06:01:04;;;;;;;0.20;0.20;;;;;;;25.96;58.23;101837.84;5109741;28;20013;-83
2023/07/09 06:03:30;;;;;;;0.10;0.10;;;;;;;26.01;57.64;101841.09;5109174;28;20020;-83
2023/07/09 06:06:00;;;;;;;0.08;0.08;;;;;;;26.10;57.78;101840.47;5104460;28;20024;-82
2023/07/09 06:08:26;;;;;;;0.35;0.35;;;;;;;26.13;57.39;101843.00;5098955;28;20111;-79
2023/07/09 06:10:55;;;;;;;0.40;0.40;;;;;;;26.18;57.84;101841.78;5102151;28;20035;-80
2023/07/09 06:13:22;;;;;;;1.00;1.00;;;;;;;26.19;57.59;101846.25;5102216;28;20024;-77
2023/07/09 06:15:49;;;;;;;0.30;0.30;;;;;;;26.28;57.77;101853.75;5105511;28;20040;-78
2023/07/09 06:18:16;;;;;;;0.20;0.20;;;;;;;26.35;57.25;101844.19;5090121;28;20571;-78
2023/07/09 06:20:46;;;;;;;0.10;0.10;;;;;;;26.42;57.34;101850.91;5097190;28;20121;-77
2023/07/09 06:23:12;;;;;;;0.20;0.20;;;;;;;26.49;57.23;101851.34;5103285;28;20054;-78
2023/07/09 06:25:39;;;;;;;0.10;0.10;;;;;;;26.57;57.15;101853.53;5095407;28;20032;-78
2023/07/09 06:28:05;;;;;;;0.20;0.20;;;;;;;26.65;56.88;101859.25;5119840;28;20099;-78
2023/07/09 06:30:31;;;;;;;0.00;0.00;;;;;;;26.74;56.69;101857.75;5097987;28;20024;-77
2023/07/09 06:32:57;;;;;;;0.00;0.00;;;;;;;26.80;56.68;101855.47;5100921;28;20019;-78
2023/07/09 06:35:23;;;;;;;0.10;0.10;;;;;;;26.82;56.14;101857.19;5095185;28;20024;-77
2023/07/09 06:37:49;;;;;;;0.28;0.28;;;;;;;26.88;56.16;101859.44;5094646;28;20447;-76
2023/07/09 06:40:15;;;;;;;0.52;0.52;;;;;;;26.95;56.21;101850.75;5096918;28;20059;-77
2023/07/09 06:42:41;;;;;;;0.10;0.10;;;;;;;27.00;56.00;101861.28;5096071;28;20028;-77
2023/07/09 06:45:08;;;;;;;0.25;0.25;;;;;;;27.06;55.92;101858.09;5094891;28;20501;-77
2023/07/09 06:47:34;;;;;;;0.65;0.65;;;;;;;27.15;55.95;101864.69;5090668;28;20047;-77
2023/07/09 06:50:00;;;;;;;0.40;0.40;;;;;;;27.23;55.49;101866.88;5093847;28;20044;-77
2023/07/09 06:52:26;;;;;;;0.10;0.10;;;;;;;27.32;55.46;101868.03;5094673;28;20024;-78
2023/07/09 06:54:52;;;;;;;0.47;0.32;;;;;;;27.38;55.35;101865.72;5105612;28;20092;-77
2023/07/09 06:57:18;;;;;;;0.47;0.47;;;;;;;27.44;55.30;101865.28;5100658;28;20019;-76
2023/07/09 06:59:44;;;;;;;0.45;0.45;;;;;;;27.52;55.29;101867.41;5094455;28;20048;-77
2023/07/09 07:02:11;;;;;;;2.67;0.75;;;;;;;27.56;54.83;101874.34;5093050;28;20024;-77
2023/07/09 07:04:37;;;;;;;0.22;0.15;;;;;;;27.51;54.70;101878.41;5094219;28;20028;-78
2023/07/09 07:07:03;;;;;;;1.08;0.40;;;;;;;27.56;54.88;101873.50;5098339;28;20059;-78
2023/07/09 07:09:30;;;;;;;0.63;0.63;;;;;;;27.57;55.16;101886.13;5100578;28;20118;-77
2023/07/09 07:11:56;;;;;;;4.97;0.73;;;;;;;27.60;55.16;101881.31;5099558;28;20087;-76
2023/07/09 07:14:22;;;;;;;0.25;0.25;;;;;;;27.68;54.78;101888.03;5096974;28;20027;-77
2023/07/09 07:16:48;;;;;;;0.10;0.10;;;;;;;27.69;55.05;101889.75;5098098;28;20019;-76
2023/07/09 07:19:14;;;;;;;1.17;0.90;;;;;;;27.67;54.98;101887.16;5101872;28;20092;-76
2023/07/09 07:21:40;;;;;;;0.73;0.40;;;;;;;27.68;54.92;101880.72;5097060;28;20051;-76
2023/07/09 07:24:07;;;;;;;1.02;1.02;;;;;;;27.77;54.63;101882.72;5101096;28;20176;-77
2023/07/09 07:26:33;;;;;;;0.95;0.32;;;;;;;27.80;53.59;101873.44;5092474;28;20032;-77
2023/07/09 07:28:59;;;;;;;1.08;0.82;;;;;;;27.87;51.94;101876.59;5098714;28;20140;-77
2023/07/09 07:31:25;;;;;;;0.28;0.28;;;;;;;27.86;50.79;101869.41;5092802;28;20035;-76
2023/07/09 07:33:52;;;;;;;1.02;1.00;;;;;;;27.74;50.85;101882.97;5087445;28;20032;-77
2023/07/09 07:36:18;;;;;;;0.00;0.00;;;;;;;27.71;49.05;101872.31;5088679;28;20028;-78
2023/07/09 07:38:44;;;;;;;0.55;0.55;;;;;;;27.65;49.23;101869.19;5086133;28;20032;-76
2023/07/09 07:41:10;;;;;;;0.38;0.38;;;;;;;27.67;50.23;101870.81;5088904;28;20043;-77
2023/07/09 07:43:36;;;;;;;1.30;1.23;;;;;;;27.57;48.87;101867.06;5084757;28;20024;-77
2023/07/09 07:46:03;;;;;;;0.17;0.17;;;;;;;27.53;49.40;101869.16;5095148;28;20493;-77
2023/07/09 07:48:29;;;;;;;0.47;0.47;;;;;;;27.53;49.06;101863.72;5097479;28;20173;-78
2023/07/09 07:51:04;;;;;;;0.30;0.30;;;;;;;27.54;48.41;101856.41;5093537;28;20157;-77
2023/07/09 07:53:31;;;;;;;0.30;0.30;;;;;;;27.58;49.60;101860.66;5091022;28;20024;-77
2023/07/09 07:55:58;;;;;;;0.30;0.30;;;;;;;27.55;49.80;101855.41;5100415;28;20028;-77
2023/07/09 07:58:25;;;;;;;0.65;0.65;;;;;;;27.59;50.07;101862.34;5094557;28;20021;-78
2023/07/09 08:00:56;;;;;;;0.38;0.38;;;;;;;27.62;49.21;101862.13;5091451;28;20036;-77
2023/07/09 08:03:23;;;;;;;;;;;;;;;27.75;49.00;101862.03;5087979;28;20103;-78
2023/07/09 08:05:51;;;;;;;3.85;0.65;;;;;;;27.69;49.10;101855.25;5099774;28;19934;-77
2023/07/09 08:08:18;;;;;;;0.57;0.50;;;;;;;27.68;48.89;101853.50;5100920;28;20034;-78
2023/07/09 08:10:44;;;;;;;0.75;0.52;;;;;;;27.76;49.10;101852.91;5102212;28;20019;-79
2023/07/09 08:13:10;;;;;;;0.70;0.70;;;;;;;27.78;48.16;101848.22;5102911;28;20028;-79
2023/07/09 08:15:36;;;;;;;0.90;0.77;;;;;;;27.93;48.68;101848.88;5095813;28;20028;-77
2023/07/09 08:18:02;;;;;;;0.10;0.10;;;;;;;28.03;48.83;101843.56;5096840;28;20028;-77
2023/07/09 08:20:28;;;;;;;0.05;0.05;;;;;;;28.09;48.31;101843.97;5094415;28;20100;-77
2023/07/09 08:22:55;;;;;;;0.35;0.35;;;;;;;28.20;48.53;101842.25;5094193;28;20035;-77
2023/07/09 08:25:21;;;;;;;0.32;0.32;;;;;;;28.29;48.99;101844.25;5092634;28;20028;-79
2023/07/09 08:27:47;;;;;;;0.30;0.30;;;;;;;28.39;49.01;101838.94;5093219;28;20068;-79
2023/07/09 08:30:13;;;;;;;0.10;0.10;;;;;;;28.51;48.79;101843.41;5096342;28;20035;-79
2023/07/09 08:32:39;;;;;;;0.40;0.40;;;;;;;28.61;48.44;101843.50;5095341;28;20054;-78
2023/07/09 08:35:06;;;;;;;0.30;0.30;;;;;;;28.70;46.86;101845.53;5099118;28;20032;-78
2023/07/09 08:37:32;;;;;;;0.00;0.00;;;;;;;28.89;47.70;101846.75;5089026;28;20027;-79
2023/07/09 08:39:58;;;;;;;0.50;0.50;;;;;;;28.97;47.53;101849.69;5092768;28;20031;-79
2023/07/09 08:42:33;;;;;;;0.10;0.10;;;;;;;29.05;47.33;101840.91;5095395;28;20068;-79
2023/07/09 08:48:05;;;;;;;0.10;0.10;;;;;;;29.20;47.25;101850.50;5077424;28;20142;-78
2023/07/09 08:50:38;;;;;;;0.10;0.10;;;;;;;29.23;46.85;101846.66;5056857;28;20052;-80
2023/07/09 08:53:09;;;;;;;0.30;0.30;;;;;;;29.29;47.50;101843.44;5056672;28;20021;-77
2023/07/09 08:55:40;;;;;;;0.10;0.10;;;;;;;29.31;47.34;101844.19;5056762;28;20053;-77
2023/07/09 08:58:19;;;;;;;0.03;0.03;;;;;;;29.42;47.08;101842.41;5058837;28;20487;-78
2023/07/09 09:00:55;;;;;;;0.10;0.10;;;;;;;29.47;46.58;101838.31;5058742;28;20060;-78
2023/07/09 09:03:37;;;;;;;0.32;0.32;;;;;;;29.60;46.74;101846.31;5059021;28;20018;-77
2023/07/09 09:06:12;;;;;;;0.57;0.38;;;;;;;29.65;45.93;101849.50;5058586;28;20051;-79
2023/07/09 09:14:32;;;;;;;0.10;0.10;;;;;;;30.15;45.84;101843.41;5120950;27;20462;-81
2023/07/09 09:16:59;;;;;;;0.57;0.57;;;;;;;30.23;46.02;101848.19;5112383;28;20036;-77
2023/07/09 09:22:13;;;;;;;0.10;0.10;;;;;;;30.32;45.26;101850.09;5080979;27;20409;-78
2023/07/09 09:27:31;;;;;;;0.10;0.10;;;;;;;30.07;45.70;101862.34;5112124;27;1173726;-77
2023/07/09 09:29:57;;;;;;;0.25;0.25;;;;;;;29.95;45.31;101856.06;5142636;27;20027;-78
2023/07/09 09:32:28;;;;;;;0.10;0.10;;;;;;;30.01;45.71;101861.00;5138826;27;20038;-77
2023/07/09 09:34:55;;;;;;;0.30;0.30;;;;;;;30.02;46.02;101862.75;5144954;27;20046;-77
2023/07/09 09:37:28;;;;;;;0.40;0.40;;;;;;;30.05;45.35;101860.75;5141450;27;20023;-78
2023/07/09 09:39:54;;;;;;;0.45;0.45;;;;;;;30.16;44.94;101863.41;5142062;27;20113;-77
2023/07/09 09:42:23;;;;;;;0.10;0.10;;;;;;;30.33;45.45;101851.84;5146220;28;20032;-78
2023/07/09 09:44:49;;;;;;;0.43;0.43;;;;;;;30.41;45.22;101855.78;5146044;28;20049;-78
2023/07/09 09:47:15;;;;;;;1.30;0.88;;;;;;;30.48;44.33;101852.38;5140295;27;20019;-78
2023/07/09 09:49:43;;;;;;;0.20;0.20;;;;;;;30.58;44.79;101840.59;5146099;28;20043;-77
2023/07/09 09:52:14;;;;;;;0.22;0.22;;;;;;;30.67;44.25;101845.25;5146864;27;20087;-79
2023/07/09 09:54:46;;;;;;;0.20;0.20;;;;;;;30.74;44.08;101840.09;5146820;28;20023;-79
2023/07/09 09:57:17;;;;;;;0.30;0.30;;;;;;;30.91;44.34;101841.28;5147160;28;20020;-78
2023/07/09 09:59:46;;;;;;;0.20;0.20;;;;;;;31.03;43.81;101844.75;5140492;27;20049;-78
2023/07/09 10:02:18;;;;;;;0.20;0.20;;;;;;;31.21;44.37;101842.25;5139169;27;20030;-78
2023/07/09 10:04:45;;;;;;;1.23;1.17;;;;;;;31.25;43.41;101839.06;5147045;28;20059;-77
2023/07/09 10:09:58;;;;;;;0.40;0.40;;;;;;;31.20;43.24;101824.94;5104009;27;20393;-77
2023/07/09 10:12:50;;;;;;;0.40;0.40;;;;;;;31.21;43.35;101823.09;5087852;28;20029;-78
2023/07/09 10:15:43;;;;;;;0.40;0.40;;;;;;;31.23;43.64;101830.13;5082443;28;20033;-79
2023/07/09 10:26:35;;;;;;;0.30;0.30;;;;;;;31.40;43.53;101853.19;5124009;27;20357;-78
2023/07/09 10:34:35;;;;;;;0.10;0.10;;;;;;;31.67;42.77;101854.38;5085880;28;20761;-79
2023/07/09 10:37:28;;;;;;;0.47;0.47;;;;;;;31.76;41.89;101839.78;5083948;28;20047;-79
2023/07/09 10:39:58;;;;;;;0.65;0.65;;;;;;;31.75;42.02;101839.94;5083555;28;20279;-79
2023/07/09 10:42:35;;;;;;;6.65;0.65;;;;;;;31.82;42.93;101840.25;5067406;28;20049;-78
2023/07/09 10:45:13;;;;;;;0.03;0.03;;;;;;;32.01;42.77;101842.06;5062701;28;20032;-79
2023/07/09 10:47:44;;;;;;;0.32;0.32;;;;;;;32.19;42.64;101843.06;5057401;28;20037;-79
2023/07/09 10:50:34;;;;;;;0.00;0.00;;;;;;;32.48;42.03;101839.34;5056488;28;20036;-79
2023/07/09 10:53:13;;;;;;;0.45;0.45;;;;;;;32.59;41.61;101850.13;5057437;28;20406;-78
2023/07/09 10:55:53;;;;;;;0.30;0.30;;;;;;;32.74;41.42;101860.59;5059788;28;20040;-78
2023/07/09 10:58:43;;;;;;;0.47;0.30;;;;;;;32.79;41.75;101869.28;5054289;28;20021;-80
2023/07/09 11:01:15;;;;;;;0.00;0.00;;;;;;;32.80;41.71;101868.25;5062205;28;20029;-78
2023/07/09 11:03:55;;;;;;;0.73;0.73;;;;;;;32.88;41.22;101871.09;5064784;28;20036;-77
2023/07/09 11:06:33;;;;;;;0.20;0.20;;;;;;;32.85;41.25;101871.41;5061768;28;20029;-78
2023/07/09 11:09:00;;;;;;;0.10;0.10;;;;;;;32.88;41.78;101871.09;5061229;28;20033;-78
2023/07/09 11:11:37;;;;;;;0.00;0.00;;;;;;;33.01;40.59;101861.63;5059816;28;20040;-77
2023/07/09 11:14:17;;;;;;;0.00;0.00;;;;;;;33.20;41.72;101864.25;5061323;28;20017;-78
2023/07/09 11:16:44;;;;;;;0.30;0.30;;;;;;;33.37;41.21;101859.81;5053289;28;20037;-79
2023/07/09 11:19:18;;;;;;;0.10;0.10;;;;;;;33.54;40.99;101859.97;5058713;28;20029;-80
2023/07/09 11:22:07;;;;;;;0.20;0.20;;;;;;;33.61;41.04;101860.19;5058582;28;20036;-77
2023/07/09 11:24:46;;;;;;;0.00;0.00;;;;;;;33.68;40.78;101855.78;5051790;28;20037;-78
2023/07/09 11:27:19;;;;;;;0.85;0.85;;;;;;;33.74;40.72;101863.41;5062577;28;20052;-77
2023/07/09 11:29:47;;;;;;;0.55;0.55;;;;;;;33.63;40.68;101874.63;5062142;28;20031;-76
2023/07/09 11:32:23;;;;;;;0.15;0.13;;;;;;;33.52;38.85;101873.88;5063661;28;20041;-79
2023/07/09 11:34:49;;;;;;;0.52;0.52;;;;;;;33.45;40.13;101870.03;5061027;28;20034;-78
2023/07/09 11:37:17;;;;;;;0.10;0.10;;;;;;;33.48;40.87;101877.09;5063675;28;20029;-78
2023/07/09 11:45:12;;;;;;;1.13;0.25;;;;;;;34.02;40.95;101879.78;5130159;27;20407;-79
2023/07/09 11:47:46;;;;;;;0.47;0.47;;;;;;;34.19;39.38;101881.63;5132330;27;20024;-77
2023/07/09 11:50:31;;;;;;;0.08;0.08;;;;;;;34.30;37.53;101898.91;5107254;28;20042;-76
2023/07/09 11:53:24;;;;;;;0.20;0.20;;;;;;;34.13;38.17;101903.41;5097014;28;20063;-76
2023/07/09 11:55:50;;;;;;;0.47;0.47;;;;;;;33.86;37.86;101903.38;5093606;28;20047;-79
2023/07/09 11:58:18;;;;;;;0.17;0.17;;;;;;;33.65;36.91;101906.44;5095268;28;20489;-78
2023/07/09 12:00:53;;;;;;;0.08;0.08;;;;;;;33.64;38.29;101925.84;5096269;28;20020;-79
2023/07/09 12:03:25;;;;;;;0.80;0.80;;;;;;;33.43;38.11;101937.97;5096513;28;20028;-79
2023/07/09 12:05:53;;;;;;;0.25;0.25;;;;;;;33.25;37.92;101950.78;5096160;28;20048;-78
2023/07/09 12:08:27;;;;;;;0.20;0.20;;;;;;;33.25;38.12;101937.06;5098500;28;20029;-77
2023/07/09 12:10:56;;;;;;;0.65;0.50;;;;;;;33.17;38.52;101922.25;5101851;28;20029;-81
2023/07/09 12:13:23;;;;;;;0.10;0.10;;;;;;;32.95;38.29;101919.88;5098824;28;20025;-79